Time;durP1;ratioP1;P1;durP2;ratioP2;P2;SDS_P1;SDS_P2;PMS_P1;PMS_P2;Temp;Humidity;BMP_temperature;BMP_pressure;BME280_temperature;BME280_humidity;BME280_pressure;Samples;Min_cycle;Max_cycle;Signal;HPM_P1;HPM_P2
2023/01/07 00:01:12;;;;;;;36.30;33.30;;;3.40;92.80;;;;;;4999356;28;20176;-91
2023/01/07 00:03:39;;;;;;;37.13;34.13;;;3.40;92.80;;;;;;4999051;28;20197;-91
2023/01/07 00:06:12;;;;;;;38.77;35.83;;;3.50;93.00;;;;;;4996301;28;20182;-92
2023/01/07 00:08:42;;;;;;;40.30;36.23;;;3.70;93.10;;;;;;4998777;28;20174;-91
2023/01/07 00:11:15;;;;;;;37.97;34.60;;;3.60;93.20;;;;;;4996779;28;20176;-92
2023/01/07 00:14:37;;;;;;;39.53;35.83;;;3.70;93.20;;;;;;4997369;28;20198;-92
2023/01/07 00:17:23;;;;;;;39.90;36.63;;;3.70;93.40;;;;;;4995472;28;20207;-91
2023/01/07 00:23:40;;;;;;;42.97;39.23;;;3.70;93.60;;;;;;4934505;29;20250;-91
2023/01/07 00:26:47;;;;;;;42.57;39.27;;;3.70;93.80;;;;;;4935837;29;20197;-91
2023/01/07 00:29:13;;;;;;;46.23;42.13;;;3.50;93.90;;;;;;4993288;28;20239;-92
2023/01/07 00:31:39;;;;;;;49.20;44.70;;;3.60;94.10;;;;;;4994909;28;20179;-91
2023/01/07 00:34:08;;;;;;;46.53;42.33;;;3.60;94.20;;;;;;4993723;28;20204;-91
2023/01/07 00:39:58;;;;;;;48.63;44.97;;;3.80;94.50;;;;;;4994783;28;20685;-90
2023/01/07 00:45:09;;;;;;;49.93;45.77;;;3.90;94.50;;;;;;4995963;28;20294;-92
2023/01/07 00:47:43;;;;;;;51.87;47.50;;;3.90;94.50;;;;;;4996446;28;20273;-93
2023/01/07 00:50:09;;;;;;;49.70;45.57;;;4.00;94.60;;;;;;4995914;28;20169;-92
2023/01/07 00:52:34;;;;;;;52.93;48.47;;;4.00;94.60;;;;;;4993802;28;20216;-91
2023/01/07 00:55:00;;;;;;;52.10;47.83;;;4.00;94.60;;;;;;4994725;28;20200;-91
2023/01/07 00:57:55;;;;;;;52.93;48.43;;;4.00;94.60;;;;;;4993159;28;20205;-92
2023/01/07 01:00:22;;;;;;;55.07;50.33;;;4.20;94.70;;;;;;4995258;28;20541;-91
2023/01/07 01:03:03;;;;;;;57.87;52.97;;;4.20;94.70;;;;;;4994454;28;20575;-91
2023/01/07 01:06:19;;;;;;;59.77;54.63;;;4.20;94.70;;;;;;4995690;28;20173;-91
2023/01/07 01:12:06;;;;;;;62.67;57.20;;;4.30;94.80;;;;;;4998645;28;20673;-91
2023/01/07 01:14:32;;;;;;;68.53;62.63;;;4.30;94.80;;;;;;4997878;28;20185;-92
2023/01/07 01:16:57;;;;;;;77.37;70.57;;;4.30;94.80;;;;;;4997200;28;20198;-91
2023/01/07 01:19:29;;;;;;;79.47;72.87;;;4.30;94.90;;;;;;4998019;28;20173;-92
2023/01/07 01:22:44;;;;;;;88.63;81.23;;;4.30;94.90;;;;;;4997831;28;20197;-92
2023/01/07 01:25:21;;;;;;;89.03;81.20;;;4.50;95.00;;;;;;4996041;28;20236;-92
2023/01/07 01:27:47;;;;;;;92.90;85.40;;;4.60;95.00;;;;;;4999652;28;20177;-91
2023/01/07 01:30:12;;;;;;;97.00;89.13;;;4.60;95.00;;;;;;4997735;28;20192;-92
2023/01/07 01:32:38;;;;;;;97.73;90.13;;;4.60;95.10;;;;;;4998335;28;20256;-91
2023/01/07 01:35:56;;;;;;;98.13;89.97;;;4.80;95.20;;;;;;4998023;28;20212;-91
2023/01/07 01:48:06;;;;;;;108.57;99.53;;;5.00;95.20;;;;;;5117692;22;20186;-90
2023/01/07 01:50:51;;;;;;;109.90;100.87;;;5.00;95.30;;;;;;4977075;28;20194;-91
2023/01/07 01:53:25;;;;;;;113.33;103.83;;;5.10;95.30;;;;;;4976666;28;20202;-91
2023/01/07 01:56:21;;;;;;;114.00;104.20;;;5.30;95.40;;;;;;4977667;28;20155;-89
2023/01/07 01:59:01;;;;;;;115.00;104.60;;;5.30;95.40;;;;;;4971908;28;20183;-91
2023/01/07 02:01:26;;;;;;;111.43;102.00;;;5.40;95.50;;;;;;4979342;28;20705;-91
2023/01/07 02:03:53;;;;;;;115.80;104.93;;;5.50;95.60;;;;;;4977493;28;20297;-92
2023/01/07 02:06:31;;;;;;;114.73;104.80;;;5.50;95.60;;;;;;4978856;28;20257;-91
2023/01/07 02:08:57;;;;;;;116.20;106.40;;;5.50;95.50;;;;;;4979035;28;20178;-91
2023/01/07 02:11:50;;;;;;;111.23;101.73;;;5.50;95.60;;;;;;4977368;28;20182;-91
2023/01/07 02:14:38;;;;;;;116.53;106.43;;;5.50;95.60;;;;;;4978121;28;20254;-91
2023/01/07 02:17:25;;;;;;;117.67;107.37;;;5.50;95.60;;;;;;4977519;28;20198;-92
2023/01/07 02:20:33;;;;;;;125.90;115.20;;;5.60;95.60;;;;;;4978574;28;20166;-91
2023/01/07 02:23:41;;;;;;;125.60;114.73;;;5.60;95.60;;;;;;4977622;28;20203;-91
2023/01/07 02:26:39;;;;;;;130.70;119.80;;;5.70;95.60;;;;;;4979282;28;20265;-91
2023/01/07 02:29:29;;;;;;;128.30;117.63;;;5.70;95.60;;;;;;4979593;28;20202;-91
2023/01/07 02:32:28;;;;;;;126.23;116.13;;;5.70;95.60;;;;;;4978436;28;20171;-91
2023/01/07 02:35:50;;;;;;;133.30;122.27;;;5.70;95.70;;;;;;4978049;28;20581;-91
2023/01/07 02:38:42;;;;;;;135.97;124.67;;;5.60;95.70;;;;;;4958254;28;20198;-91
2023/01/07 02:41:16;;;;;;;131.97;121.17;;;5.70;95.70;;;;;;4978180;28;20187;-91
2023/01/07 02:44:13;;;;;;;135.07;123.63;;;5.80;95.80;;;;;;4978433;28;20750;-91
2023/01/07 02:46:49;;;;;;;134.27;123.37;;;5.90;95.90;;;;;;4977560;28;20171;-91
2023/01/07 02:49:16;;;;;;;129.70;119.17;;;6.00;96.00;;;;;;4979069;28;20273;-91
2023/01/07 02:51:43;;;;;;;133.07;120.97;;;6.00;96.00;;;;;;4977924;28;20207;-91
2023/01/07 02:54:14;;;;;;;124.87;114.57;;;6.10;96.00;;;;;;4978346;28;20202;-91
2023/01/07 02:57:02;;;;;;;117.40;107.30;;;6.20;96.10;;;;;;4977377;28;20289;-91
2023/01/07 02:59:48;;;;;;;126.90;116.17;;;6.30;96.10;;;;;;4971200;28;20183;-91
2023/01/07 03:02:30;;;;;;;125.50;114.97;;;6.30;96.10;;;;;;4978830;28;20591;-91
2023/01/07 03:05:11;;;;;;;125.73;114.83;;;6.30;96.10;;;;;;4978155;28;20175;-91
2023/01/07 03:08:03;;;;;;;120.07;109.63;;;6.40;96.20;;;;;;4979739;28;20175;-91
2023/01/07 03:10:35;;;;;;;123.23;112.27;;;6.50;96.30;;;;;;4979371;28;20532;-91
2023/01/07 03:13:12;;;;;;;115.33;104.97;;;6.60;96.30;;;;;;4980596;28;20296;-91
2023/01/07 03:15:44;;;;;;;113.50;103.23;;;6.70;96.30;;;;;;4979397;28;20171;-91
2023/01/07 03:18:21;;;;;;;111.93;102.27;;;6.80;96.40;;;;;;4980040;28;20171;-91
2023/01/07 03:20:52;;;;;;;112.60;101.97;;;6.90;96.40;;;;;;4984053;28;20230;-92
2023/01/07 03:23:21;;;;;;;112.60;102.37;;;7.00;96.40;;;;;;4978829;28;20323;-91
2023/01/07 03:25:49;;;;;;;113.77;102.73;;;7.00;96.40;;;;;;4977555;28;20241;-92
2023/01/07 03:28:17;;;;;;;116.00;105.17;;;7.00;96.40;;;;;;4978354;28;20179;-91
2023/01/07 03:30:45;;;;;;;122.40;110.53;;;7.10;96.40;;;;;;4977836;28;20190;-90
2023/01/07 03:33:25;;;;;;;121.00;109.70;;;7.20;96.50;;;;;;4976621;28;20206;-91
2023/01/07 03:35:55;;;;;;;123.33;111.43;;;7.30;96.50;;;;;;4976647;28;20163;-91
2023/01/07 03:38:24;;;;;;;124.57;112.47;;;7.30;96.50;;;;;;4975600;28;20201;-91
2023/01/07 03:40:50;;;;;;;127.10;115.10;;;7.30;96.50;;;;;;4976468;28;20270;-91
2023/01/07 03:43:21;;;;;;;129.53;117.43;;;7.30;96.50;;;;;;4976760;28;20226;-92
2023/01/07 03:45:49;;;;;;;131.90;119.57;;;7.30;96.50;;;;;;4978780;28;20178;-91
2023/01/07 03:48:14;;;;;;;131.83;118.97;;;7.30;96.40;;;;;;4978360;28;20262;-92
2023/01/07 03:50:40;;;;;;;137.77;124.83;;;7.40;96.50;;;;;;4979393;28;20210;-91
2023/01/07 03:53:06;;;;;;;141.37;127.63;;;7.40;96.50;;;;;;4980924;28;20195;-91
2023/01/07 03:55:31;;;;;;;141.47;127.93;;;7.40;96.50;;;;;;4977003;28;20594;-91
2023/01/07 03:57:57;;;;;;;140.93;127.30;;;7.50;96.50;;;;;;4976547;28;20230;-91
2023/01/07 04:00:23;;;;;;;139.87;125.97;;;7.40;96.60;;;;;;4977361;28;20665;-91
2023/01/07 04:02:48;;;;;;;144.97;130.97;;;7.40;96.50;;;;;;4976886;28;20201;-91
2023/01/07 04:05:14;;;;;;;143.83;130.10;;;7.50;96.60;;;;;;4976376;28;20295;-91
2023/01/07 04:07:39;;;;;;;147.23;132.77;;;7.60;96.60;;;;;;4976427;28;20182;-91
2023/01/07 04:10:06;;;;;;;145.60;131.23;;;7.50;96.60;;;;;;4977619;28;20178;-91
2023/01/07 04:12:32;;;;;;;140.53;126.77;;;7.60;96.60;;;;;;4976794;28;20297;-91
2023/01/07 04:14:57;;;;;;;136.60;123.03;;;7.70;96.70;;;;;;4977119;28;20179;-91
2023/01/07 04:17:23;;;;;;;129.73;116.00;;;7.80;96.70;;;;;;4975467;28;20205;-91
2023/01/07 04:19:48;;;;;;;137.10;123.07;;;7.80;96.70;;;;;;4975876;28;20221;-91
2023/01/07 04:22:14;;;;;;;134.00;120.00;;;7.90;96.70;;;;;;4977338;28;20269;-91
2023/01/07 04:24:39;;;;;;;125.47;112.60;;;8.00;96.80;;;;;;4977376;28;20186;-91
2023/01/07 04:27:05;;;;;;;122.73;110.90;;;8.20;96.80;;;;;;4975842;28;20182;-91
2023/01/07 04:29:30;;;;;;;122.27;110.20;;;8.20;96.90;;;;;;4976053;28;20182;-91
2023/01/07 04:31:56;;;;;;;120.17;107.90;;;8.30;96.90;;;;;;4977719;28;20178;-91
2023/01/07 04:34:23;;;;;;;118.07;105.90;;;8.40;96.90;;;;;;4977358;28;20233;-91
2023/01/07 04:36:48;;;;;;;115.53;104.10;;;8.40;96.90;;;;;;4976480;28;20343;-91
2023/01/07 04:39:15;;;;;;;113.67;102.23;;;8.40;96.90;;;;;;4977677;28;20182;-91
2023/01/07 04:41:40;;;;;;;116.33;104.20;;;8.40;96.80;;;;;;4977283;28;20213;-91
2023/01/07 04:44:06;;;;;;;108.87;97.90;;;8.50;96.80;;;;;;4977657;28;20202;-92
2023/01/07 04:46:32;;;;;;;114.53;102.43;;;8.50;96.80;;;;;;4977999;28;20595;-91
2023/01/07 04:48:57;;;;;;;100.33;89.87;;;8.60;96.80;;;;;;4977986;28;20209;-91
2023/01/07 04:51:23;;;;;;;110.53;99.20;;;8.60;96.80;;;;;;4979492;28;20254;-91
2023/01/07 04:53:48;;;;;;;110.20;98.93;;;8.70;96.80;;;;;;4980434;28;20209;-91
2023/01/07 04:56:14;;;;;;;100.60;90.53;;;8.70;96.80;;;;;;4977411;28;20221;-91
2023/01/07 04:58:39;;;;;;;98.77;88.43;;;8.80;96.80;;;;;;4979213;28;20715;-91
2023/01/07 05:01:05;;;;;;;99.67;89.47;;;8.80;96.80;;;;;;4979424;28;20183;-91
2023/01/07 05:03:33;;;;;;;102.30;92.00;;;8.80;96.80;;;;;;4979160;28;20205;-91
2023/01/07 05:05:59;;;;;;;96.33;86.43;;;8.90;96.80;;;;;;4980105;28;20206;-91
2023/01/07 05:08:25;;;;;;;98.20;87.57;;;8.90;96.80;;;;;;4981805;28;20175;-92
2023/01/07 05:10:51;;;;;;;92.40;82.80;;;8.90;96.80;;;;;;4981227;28;20186;-92
2023/01/07 05:13:21;;;;;;;103.30;93.03;;;8.90;96.80;;;;;;4980516;28;20296;-92
2023/01/07 05:15:47;;;;;;;108.13;97.10;;;9.00;96.80;;;;;;4982401;28;20246;-92
2023/01/07 05:18:13;;;;;;;108.10;97.17;;;9.00;96.80;;;;;;4985164;28;20178;-91
2023/01/07 05:20:39;;;;;;;109.90;98.87;;;9.00;96.80;;;;;;4985554;28;20206;-91
2023/01/07 05:23:05;;;;;;;106.23;95.33;;;9.10;96.80;;;;;;4984998;28;20282;-92
2023/01/07 05:25:32;;;;;;;110.70;99.27;;;9.00;96.80;;;;;;4985153;28;20182;-92
2023/01/07 05:27:58;;;;;;;109.60;98.60;;;9.10;96.80;;;;;;4987687;28;20564;-92
2023/01/07 05:30:23;;;;;;;103.27;92.80;;;9.10;96.80;;;;;;4989525;28;20190;-92
2023/01/07 05:32:49;;;;;;;105.60;94.90;;;9.20;96.80;;;;;;4987605;28;20206;-92
2023/01/07 05:35:14;;;;;;;105.30;94.20;;;9.20;96.80;;;;;;4988449;28;20187;-92
2023/01/07 05:37:40;;;;;;;111.27;99.63;;;9.10;96.70;;;;;;4989048;28;20221;-92
2023/01/07 05:40:06;;;;;;;110.03;98.97;;;9.10;96.70;;;;;;4989417;28;20167;-92
2023/01/07 05:42:32;;;;;;;106.37;95.23;;;9.10;96.70;;;;;;4989688;28;20209;-91
2023/01/07 05:44:57;;;;;;;106.80;96.07;;;9.20;96.80;;;;;;4994973;28;20179;-92
2023/01/07 05:47:23;;;;;;;111.73;100.43;;;9.10;96.70;;;;;;4991081;28;20175;-92
2023/01/07 05:49:49;;;;;;;110.03;98.70;;;9.10;96.70;;;;;;4982916;28;20208;-92
2023/01/07 05:52:14;;;;;;;105.33;95.13;;;9.10;96.70;;;;;;4991888;28;20297;-92
2023/01/07 05:54:40;;;;;;;109.87;98.50;;;9.20;96.80;;;;;;4994533;28;20186;-92
2023/01/07 05:57:05;;;;;;;103.93;93.73;;;9.20;96.70;;;;;;4995944;28;20198;-92
2023/01/07 05:59:33;;;;;;;112.33;100.90;;;9.20;96.70;;;;;;4996900;28;20159;-93
2023/01/07 06:01:59;;;;;;;109.90;98.47;;;9.30;96.70;;;;;;4995037;28;20179;-92
2023/01/07 06:04:25;;;;;;;115.67;104.13;;;9.20;96.70;;;;;;4992156;28;20179;-92
2023/01/07 06:06:51;;;;;;;115.77;104.00;;;9.30;96.70;;;;;;4992917;28;20187;-92
2023/01/07 06:09:16;;;;;;;111.17;99.87;;;9.20;96.70;;;;;;4992199;28;20175;-92
2023/01/07 06:11:42;;;;;;;105.23;94.90;;;9.30;96.80;;;;;;4992637;28;20214;-92
2023/01/07 06:14:08;;;;;;;104.40;94.37;;;9.30;96.80;;;;;;4993796;28;20203;-92
2023/01/07 06:16:34;;;;;;;112.10;100.77;;;9.30;96.80;;;;;;4995550;28;20209;-92
2023/01/07 06:18:59;;;;;;;106.00;95.77;;;9.20;96.80;;;;;;4993460;28;20175;-92
2023/01/07 06:21:25;;;;;;;111.67;100.63;;;9.30;96.80;;;;;;4994230;28;20205;-92
2023/01/07 06:23:51;;;;;;;106.23;96.00;;;9.30;96.80;;;;;;4995014;28;20187;-92
2023/01/07 06:26:16;;;;;;;106.83;96.13;;;9.20;96.80;;;;;;4999419;28;20203;-92
2023/01/07 06:28:42;;;;;;;104.00;94.33;;;9.30;96.80;;;;;;4999828;28;20170;-93
2023/01/07 06:31:09;;;;;;;105.40;95.03;;;9.30;96.80;;;;;;4999011;28;20242;-91
2023/01/07 06:33:36;;;;;;;102.77;92.80;;;9.30;96.80;;;;;;4998608;28;20179;-93
2023/01/07 06:36:03;;;;;;;97.83;88.30;;;9.30;96.80;;;;;;4999901;28;20191;-92
2023/01/07 06:38:29;;;;;;;104.50;94.23;;;9.40;96.80;;;;;;4999205;28;20182;-90
2023/01/07 06:40:55;;;;;;;103.37;93.50;;;9.30;96.80;;;;;;5000017;28;20170;-91
2023/01/07 06:43:20;;;;;;;101.30;92.03;;;9.40;96.80;;;;;;5000042;28;20209;-92
2023/01/07 06:45:46;;;;;;;104.13;94.53;;;9.40;96.80;;;;;;4998725;28;20190;-92
2023/01/07 06:48:11;;;;;;;102.97;93.53;;;9.50;96.80;;;;;;4990244;28;20284;-91
2023/01/07 06:50:37;;;;;;;100.57;91.67;;;9.50;96.80;;;;;;4999260;28;20251;-91
2023/01/07 06:53:02;;;;;;;105.87;95.83;;;9.50;96.80;;;;;;5000863;28;20211;-91
2023/01/07 06:55:28;;;;;;;109.93;99.67;;;9.60;96.80;;;;;;5000772;28;20175;-92
2023/01/07 06:57:54;;;;;;;110.57;100.40;;;9.60;96.70;;;;;;5000443;28;20217;-92
2023/01/07 07:00:20;;;;;;;110.93;100.73;;;9.60;96.70;;;;;;4999620;28;20166;-93
2023/01/07 07:02:45;;;;;;;110.53;100.17;;;9.50;96.70;;;;;;4997401;28;20203;-92
2023/01/07 07:05:11;;;;;;;110.10;99.67;;;9.50;96.70;;;;;;4997338;28;20209;-91
2023/01/07 07:07:37;;;;;;;105.40;95.40;;;9.50;96.70;;;;;;5000004;28;20182;-92
2023/01/07 07:10:06;;;;;;;112.63;101.70;;;9.50;96.70;;;;;;4997604;28;20238;-89
2023/01/07 07:12:32;;;;;;;112.43;101.77;;;9.40;96.70;;;;;;4998688;28;20202;-92
2023/01/07 07:14:58;;;;;;;116.17;104.70;;;9.30;96.70;;;;;;4998395;28;20193;-91
2023/01/07 07:17:23;;;;;;;110.10;99.27;;;9.30;96.70;;;;;;4998660;28;20206;-92
2023/01/07 07:19:49;;;;;;;110.93;100.33;;;9.30;96.80;;;;;;4998534;28;20209;-92
2023/01/07 07:22:14;;;;;;;101.50;91.60;;;9.30;96.80;;;;;;4993218;28;20205;-92
2023/01/07 07:24:40;;;;;;;112.20;101.00;;;9.30;96.80;;;;;;4990264;28;20190;-92
2023/01/07 07:27:06;;;;;;;107.60;96.97;;;9.30;96.80;;;;;;4988841;28;20185;-92
2023/01/07 07:29:31;;;;;;;112.90;101.83;;;9.40;96.80;;;;;;4996772;28;20194;-93
2023/01/07 07:31:57;;;;;;;114.33;103.40;;;9.40;96.80;;;;;;4997030;28;20194;-91
2023/01/07 07:34:22;;;;;;;115.73;104.83;;;9.40;96.80;;;;;;4997985;28;20171;-93
2023/01/07 07:36:48;;;;;;;108.67;98.37;;;9.40;96.80;;;;;;4994940;28;20210;-92
2023/01/07 07:39:14;;;;;;;115.63;104.63;;;9.50;96.80;;;;;;4994038;28;20175;-92
2023/01/07 07:41:40;;;;;;;116.33;105.43;;;9.40;96.80;;;;;;4991396;28;20198;-92
2023/01/07 07:44:05;;;;;;;122.87;111.23;;;9.40;96.80;;;;;;4996660;28;20201;-89
2023/01/07 07:46:31;;;;;;;126.47;114.57;;;9.40;96.70;;;;;;4999841;28;20175;-91
2023/01/07 07:48:56;;;;;;;125.87;114.43;;;9.40;96.70;;;;;;4999749;28;20199;-91
2023/01/07 07:51:22;;;;;;;118.10;106.90;;;9.40;96.70;;;;;;4999457;28;20173;-92
2023/01/07 07:53:48;;;;;;;127.07;114.83;;;9.40;96.70;;;;;;4999402;28;20222;-90
2023/01/07 07:56:13;;;;;;;122.13;110.37;;;9.40;96.60;;;;;;4998700;28;20577;-91
2023/01/07 07:58:39;;;;;;;131.87;119.37;;;9.40;96.60;;;;;;4998779;28;20147;-91
2023/01/07 08:01:04;;;;;;;132.10;120.00;;;9.40;96.50;;;;;;4997993;28;20173;-92
2023/01/07 08:03:30;;;;;;;135.77;123.27;;;9.40;96.50;;;;;;4980222;28;20211;-92
2023/01/07 08:05:56;;;;;;;130.97;119.13;;;9.50;96.50;;;;;;4978281;28;20182;-91
2023/01/07 08:08:21;;;;;;;130.23;118.63;;;9.40;96.40;;;;;;4974320;28;20182;-91
2023/01/07 08:10:47;;;;;;;130.93;119.57;;;9.40;96.40;;;;;;4979999;28;20182;-91
2023/01/07 08:13:12;;;;;;;135.50;123.70;;;9.40;96.40;;;;;;4984118;28;20202;-92
2023/01/07 08:15:38;;;;;;;131.30;120.03;;;9.50;96.40;;;;;;4993807;28;20170;-91
2023/01/07 08:18:06;;;;;;;118.33;108.13;;;9.50;96.20;;;;;;4996263;28;20223;-92
2023/01/07 08:20:33;;;;;;;128.37;117.17;;;9.50;96.20;;;;;;4994048;28;20175;-92
2023/01/07 08:23:00;;;;;;;129.23;118.20;;;9.50;96.10;;;;;;4990324;28;20230;-92
2023/01/07 08:25:27;;;;;;;130.43;119.23;;;9.50;96.10;;;;;;4980510;28;20262;-91
2023/01/07 08:27:54;;;;;;;130.33;119.60;;;9.60;96.00;;;;;;4980211;28;20273;-91
2023/01/07 08:30:20;;;;;;;125.60;115.00;;;9.60;95.80;;;;;;4983280;28;20171;-91
2023/01/07 08:32:45;;;;;;;135.40;124.30;;;9.60;95.70;;;;;;4980848;28;20217;-91
2023/01/07 08:35:11;;;;;;;132.23;121.10;;;9.60;95.70;;;;;;4982578;28;20668;-91
2023/01/07 08:37:37;;;;;;;137.00;125.80;;;9.60;95.70;;;;;;4981507;28;20289;-91
2023/01/07 08:40:04;;;;;;;131.43;120.63;;;9.70;95.70;;;;;;4980445;28;20269;-92
2023/01/07 08:42:30;;;;;;;131.87;121.37;;;9.70;95.70;;;;;;4978440;28;20285;-91
2023/01/07 08:44:55;;;;;;;136.20;125.30;;;9.70;95.70;;;;;;4979361;28;20211;-91
2023/01/07 08:47:21;;;;;;;141.33;130.03;;;9.70;95.70;;;;;;4985080;28;20183;-92
2023/01/07 08:49:46;;;;;;;136.30;125.10;;;9.70;95.70;;;;;;4990366;28;20202;-91
2023/01/07 08:52:12;;;;;;;132.67;122.10;;;9.80;95.60;;;;;;4983518;28;20199;-91
2023/01/07 08:54:38;;;;;;;137.83;126.83;;;9.70;95.60;;;;;;4978997;28;20245;-91
2023/01/07 08:57:03;;;;;;;137.53;126.47;;;9.70;95.60;;;;;;4975579;28;20222;-91
2023/01/07 08:59:37;;;;;;;130.93;120.40;;;9.70;95.60;;;;;;4977268;28;20190;-91
2023/01/07 09:02:03;;;;;;;134.30;123.60;;;9.80;95.50;;;;;;4976886;28;20186;-90
2023/01/07 09:05:09;;;;;;;133.43;123.17;;;9.80;95.50;;;;;;4977391;28;20179;-91
2023/01/07 09:07:34;;;;;;;132.90;122.63;;;9.70;95.50;;;;;;4976201;28;20671;-91
2023/01/07 09:10:00;;;;;;;132.30;121.97;;;9.80;95.50;;;;;;4976313;28;20179;-91
2023/01/07 09:12:26;;;;;;;130.27;120.40;;;9.80;95.50;;;;;;4979243;28;20198;-91
2023/01/07 09:14:52;;;;;;;120.73;111.23;;;9.80;95.40;;;;;;4978384;28;20175;-92
2023/01/07 09:17:18;;;;;;;123.03;113.53;;;9.90;95.30;;;;;;4975830;28;20190;-90
2023/01/07 09:19:43;;;;;;;113.77;104.53;;;9.80;95.20;;;;;;4975734;28;20164;-91
2023/01/07 09:22:09;;;;;;;114.83;105.97;;;9.90;95.10;;;;;;4976533;28;20261;-91
2023/01/07 09:24:34;;;;;;;106.57;98.23;;;9.90;95.10;;;;;;4976780;28;20185;-91
2023/01/07 09:27:00;;;;;;;110.90;102.37;;;9.90;94.90;;;;;;4981860;28;20215;-91
2023/01/07 09:29:25;;;;;;;109.23;101.00;;;9.90;94.80;;;;;;4984195;28;20233;-91
2023/01/07 09:31:51;;;;;;;108.37;100.17;;;9.90;94.80;;;;;;4984030;28;20202;-91
2023/01/07 09:34:16;;;;;;;106.00;97.83;;;9.90;94.70;;;;;;4984965;28;20213;-91
2023/01/07 09:36:42;;;;;;;107.10;98.00;;;10.00;94.70;;;;;;4987374;28;20211;-92
2023/01/07 09:39:10;;;;;;;103.77;96.27;;;9.90;94.60;;;;;;4984230;28;20212;-92
2023/01/07 09:41:55;;;;;;;101.33;94.13;;;10.00;94.50;;;;;;4986116;28;20178;-91
2023/01/07 09:44:56;;;;;;;90.77;83.97;;;10.00;94.40;;;;;;4985201;28;20179;-92
2023/01/07 09:47:25;;;;;;;71.37;65.97;;;10.00;94.10;;;;;;4984560;28;20259;-92
2023/01/07 09:49:54;;;;;;;70.03;64.63;;;10.10;93.80;;;;;;4986237;28;20245;-92
2023/01/07 09:52:37;;;;;;;72.80;67.37;;;10.10;93.60;;;;;;4987816;28;20198;-92
2023/01/07 09:55:16;;;;;;;72.13;66.80;;;10.10;93.50;;;;;;4978778;28;20170;-90
2023/01/07 09:57:42;;;;;;;66.63;61.73;;;10.10;93.40;;;;;;4982215;28;20190;-91
2023/01/07 10:00:16;;;;;;;66.37;61.17;;;10.10;93.20;;;;;;4980961;28;20185;-91
2023/01/07 10:02:55;;;;;;;73.13;67.93;;;10.20;93.00;;;;;;4995831;28;20191;-92
2023/01/07 10:05:47;;;;;;;73.27;68.17;;;10.10;92.90;;;;;;4987414;28;20174;-91
2023/01/07 10:08:24;;;;;;;71.03;66.10;;;10.10;93.00;;;;;;4994846;28;20155;-93
2023/01/07 10:11:24;;;;;;;70.73;65.70;;;10.10;92.90;;;;;;4990083;28;20174;-92
2023/01/07 10:14:04;;;;;;;71.17;66.20;;;10.20;92.80;;;;;;4987514;28;20199;-91
2023/01/07 10:16:47;;;;;;;72.73;67.43;;;10.10;92.80;;;;;;4985653;28;20652;-91
2023/01/07 10:19:39;;;;;;;65.47;60.87;;;10.10;92.90;;;;;;4984053;28;20167;-92
2023/01/07 10:22:17;;;;;;;68.47;63.57;;;10.20;92.70;;;;;;4983824;28;20201;-92
2023/01/07 10:24:47;;;;;;;71.03;66.13;;;10.20;92.70;;;;;;4984561;28;20171;-92
2023/01/07 10:27:17;;;;;;;68.93;64.07;;;10.20;92.70;;;;;;4986522;28;20170;-91
2023/01/07 10:29:47;;;;;;;72.47;67.40;;;10.30;92.80;;;;;;4991675;28;20230;-93
2023/01/07 10:32:19;;;;;;;70.53;65.87;;;10.30;92.80;;;;;;4993605;28;20289;-92
2023/01/07 10:34:48;;;;;;;70.67;65.87;;;10.30;92.80;;;;;;4983486;28;20179;-92
2023/01/07 10:37:31;;;;;;;64.80;60.30;;;10.30;92.80;;;;;;4987372;28;20203;-92
2023/01/07 10:40:17;;;;;;;68.23;63.73;;;10.30;92.50;;;;;;4983233;28;20604;-92
2023/01/07 10:43:21;;;;;;;65.97;61.77;;;10.40;92.70;;;;;;4981628;28;20194;-92
2023/01/07 10:46:06;;;;;;;61.10;57.20;;;10.30;92.50;;;;;;4978251;28;20170;-91
2023/01/07 10:48:38;;;;;;;62.07;57.90;;;10.50;92.50;;;;;;4986942;28;20214;-91
2023/01/07 10:51:28;;;;;;;61.77;57.57;;;10.50;92.50;;;;;;4984963;28;20183;-91
2023/01/07 10:54:30;;;;;;;52.50;49.07;;;10.50;92.30;;;;;;4982166;28;20214;-92
2023/01/07 10:57:12;;;;;;;58.23;54.63;;;10.50;91.90;;;;;;4978349;28;20222;-91
2023/01/07 10:59:40;;;;;;;51.90;48.70;;;10.50;91.90;;;;;;4983486;28;20523;-91
2023/01/07 11:02:17;;;;;;;50.13;46.93;;;10.50;91.70;;;;;;4982126;28;20183;-92
2023/01/07 11:04:43;;;;;;;44.53;41.83;;;10.50;91.40;;;;;;4982736;28;20198;-92
2023/01/07 11:07:23;;;;;;;41.90;39.40;;;10.60;91.20;;;;;;4978636;28;20182;-91
2023/01/07 11:09:51;;;;;;;43.03;40.57;;;10.50;90.90;;;;;;4975319;28;20178;-92
2023/01/07 11:12:36;;;;;;;42.43;39.93;;;10.50;91.00;;;;;;4975476;28;20199;-92
2023/01/07 11:15:06;;;;;;;39.53;37.20;;;10.50;91.00;;;;;;4975332;28;20259;-91
2023/01/07 11:17:40;;;;;;;44.57;41.90;;;10.50;90.80;;;;;;4976242;28;20221;-91
2023/01/07 11:20:07;;;;;;;41.80;39.30;;;10.40;91.00;;;;;;4977855;28;20187;-91
2023/01/07 11:22:35;;;;;;;38.53;36.27;;;10.30;90.80;;;;;;4977186;28;20202;-91
2023/01/07 11:25:06;;;;;;;35.93;33.80;;;10.40;90.90;;;;;;4975622;28;20175;-92
2023/01/07 11:27:33;;;;;;;38.10;35.70;;;10.40;90.70;;;;;;4977484;28;20258;-91
2023/01/07 11:30:18;;;;;;;37.77;35.37;;;10.50;90.60;;;;;;4977704;28;20274;-92
2023/01/07 11:33:14;;;;;;;34.00;31.83;;;10.50;90.60;;;;;;4979127;28;20199;-91
2023/01/07 11:35:54;;;;;;;32.67;30.77;;;10.50;90.30;;;;;;4971749;28;20191;-92
2023/01/07 11:38:38;;;;;;;31.33;29.43;;;10.50;90.10;;;;;;4975818;28;20657;-92
2023/01/07 11:41:17;;;;;;;32.47;30.57;;;10.40;89.90;;;;;;4976136;28;20170;-92
2023/01/07 11:43:47;;;;;;;31.30;29.40;;;10.40;90.10;;;;;;4975424;28;20209;-92
2023/01/07 11:46:14;;;;;;;28.87;27.17;;;10.40;89.90;;;;;;4976454;28;20159;-92
2023/01/07 11:48:56;;;;;;;27.73;25.93;;;10.40;89.50;;;;;;4976127;28;20195;-91
2023/01/07 11:51:23;;;;;;;30.90;29.00;;;10.40;89.20;;;;;;4977892;28;20161;-91
2023/01/07 11:53:48;;;;;;;29.37;27.57;;;10.40;89.60;;;;;;4975997;28;20286;-92
2023/01/07 11:56:20;;;;;;;31.23;28.83;;;10.40;89.70;;;;;;4979736;28;20198;-92
2023/01/07 11:58:48;;;;;;;27.47;25.77;;;10.40;89.50;;;;;;4978541;28;20178;-92
2023/01/07 12:01:22;;;;;;;26.30;24.50;;;10.50;89.20;;;;;;4977927;28;20182;-91
2023/01/07 12:03:50;;;;;;;25.37;23.70;;;10.50;89.10;;;;;;4975208;28;20193;-91
2023/01/07 12:06:26;;;;;;;28.67;26.97;;;10.50;89.20;;;;;;4974674;28;20178;-91
2023/01/07 12:09:03;;;;;;;26.23;24.73;;;10.50;89.50;;;;;;4976826;28;20169;-91
2023/01/07 12:11:32;;;;;;;22.30;21.00;;;10.50;89.00;;;;;;4978311;28;20170;-91
2023/01/07 12:14:07;;;;;;;22.97;21.57;;;10.50;88.40;;;;;;4988612;28;20202;-93
2023/01/07 12:16:34;;;;;;;20.43;19.17;;;10.60;88.40;;;;;;4989358;28;20194;-92
2023/01/07 12:19:18;;;;;;;20.67;19.33;;;10.60;87.90;;;;;;5062811;22;20568;-92
2023/01/07 12:22:41;;;;;;;19.97;18.40;;;10.60;88.10;;;;;;4999744;28;20178;-91
2023/01/07 12:25:21;;;;;;;19.20;18.10;;;10.60;87.70;;;;;;4891917;29;20182;-92
2023/01/07 12:28:14;;;;;;;19.60;18.43;;;10.60;87.90;;;;;;4892695;29;20207;-90
2023/01/07 12:31:17;;;;;;;21.10;19.80;;;10.60;87.80;;;;;;4981710;28;20210;-91
2023/01/07 12:34:07;;;;;;;19.93;18.73;;;10.50;88.00;;;;;;4978554;28;20672;-92
2023/01/07 12:36:53;;;;;;;19.07;17.57;;;10.50;87.70;;;;;;4987551;28;20673;-92
2023/01/07 12:39:36;;;;;;;20.30;19.10;;;10.50;87.50;;;;;;4978358;28;20171;-92
2023/01/07 12:42:17;;;;;;;20.00;18.27;;;10.50;87.70;;;;;;4981209;28;20170;-92
2023/01/07 12:44:47;;;;;;;22.43;21.00;;;10.50;87.80;;;;;;4976984;28;20543;-91
2023/01/07 12:47:19;;;;;;;21.20;20.00;;;10.40;88.10;;;;;;4980735;28;20217;-91
2023/01/07 12:49:49;;;;;;;22.37;21.07;;;10.40;88.10;;;;;;4982347;28;20343;-92
2023/01/07 12:52:23;;;;;;;22.43;21.13;;;10.40;88.30;;;;;;4988312;28;20187;-92
2023/01/07 12:55:02;;;;;;;24.27;22.83;;;10.40;88.40;;;;;;4980364;28;20630;-92
2023/01/07 12:57:37;;;;;;;22.87;21.53;;;10.30;88.50;;;;;;4981790;28;20206;-93
2023/01/07 13:00:29;;;;;;;23.13;21.83;;;10.40;88.20;;;;;;4975435;28;20166;-91
2023/01/07 13:03:24;;;;;;;23.67;22.17;;;10.30;88.20;;;;;;4978114;28;20297;-91
2023/01/07 13:06:03;;;;;;;22.63;21.30;;;10.30;88.50;;;;;;4979462;28;20652;-89
2023/01/07 13:08:53;;;;;;;24.00;22.60;;;10.30;88.50;;;;;;4979109;28;20639;-91
2023/01/07 13:14:30;;;;;;;23.73;22.33;;;10.30;88.80;;;;;;4979052;28;20201;-91
2023/01/07 13:17:30;;;;;;;24.20;22.90;;;10.20;88.90;;;;;;4977762;28;20237;-91